Time;durP1;ratioP1;P1;durP2;ratioP2;P2;SDS_P1;SDS_P2;PMS_P1;PMS_P2;Temp;Humidity;BMP_temperature;BMP_pressure;BME280_temperature;BME280_humidity;BME280_pressure;Samples;Min_cycle;Max_cycle;Signal;HPM_P1;HPM_P2
2021/09/26 00:00:13;;;;;;;17.27;13.60;;;;;;;15.53;82.72;100615.53;1819720;78;25685;-63
2021/09/26 00:02:42;;;;;;;21.12;13.45;;;;;;;15.48;82.81;100611.11;1812583;78;25966;-65
2021/09/26 00:05:11;;;;;;;19.67;13.60;;;;;;;15.43;82.80;100612.10;1815212;78;25694;-63
2021/09/26 00:07:38;;;;;;;17.37;11.97;;;;;;;15.39;82.95;100610.37;1789438;80;25605;-62
2021/09/26 00:10:08;;;;;;;15.85;12.93;;;;;;;15.34;83.02;100608.66;1789184;80;27446;-62
2021/09/26 00:12:35;;;;;;;16.10;13.10;;;;;;;15.30;82.76;100617.25;1789037;80;25757;-61
2021/09/26 00:15:06;;;;;;;21.40;14.35;;;;;;;15.24;82.60;100613.16;1758612;80;25541;-60
2021/09/26 00:17:33;;;;;;;18.60;13.75;;;;;;;15.19;82.87;100614.69;1789155;80;26012;-61
2021/09/26 00:20:00;;;;;;;20.88;12.75;;;;;;;15.12;82.88;100613.88;1789156;80;25388;-60
2021/09/26 00:25:23;;;;;;;16.05;12.43;;;;;;;15.01;82.50;100615.39;1806361;76;26750;-61
2021/09/26 00:27:50;;;;;;;14.25;12.00;;;;;;;14.92;82.40;100622.26;1789966;80;25613;-61
2021/09/26 00:30:17;;;;;;;17.75;13.22;;;;;;;14.86;82.30;100621.63;1801744;79;25618;-61
2021/09/26 00:32:45;;;;;;;19.80;12.95;;;;;;;14.81;82.50;100626.48;1763309;80;25464;-61
2021/09/26 00:38:07;;;;;;;37.20;18.98;;;;;;;14.66;82.60;100627.84;1742336;77;26952;-61
2021/09/26 00:40:34;;;;;;;43.87;18.55;;;;;;;14.58;82.98;100629.46;1727244;83;25602;-59
2021/09/26 00:43:02;;;;;;;21.87;15.08;;;;;;;14.51;82.75;100628.61;1723017;83;25473;-59
2021/09/26 00:45:28;;;;;;;31.25;16.40;;;;;;;14.45;83.28;100632.63;1727293;83;25638;-60
2021/09/26 00:47:54;;;;;;;23.87;14.83;;;;;;;14.36;83.16;100635.95;1727230;82;27483;-59
2021/09/26 00:50:23;;;;;;;50.30;22.30;;;;;;;14.29;83.35;100632.38;1701311;83;26063;-60
2021/09/26 00:52:51;;;;;;;23.77;16.55;;;;;;;14.26;84.70;100631.66;1727246;83;25477;-59
2021/09/26 00:55:18;;;;;;;20.10;14.25;;;;;;;14.27;84.87;100637.35;1727295;82;25481;-59
2021/09/26 00:57:45;;;;;;;21.05;14.73;;;;;;;14.22;84.24;100633.45;1727304;83;25410;-58
2021/09/26 01:00:17;;;;;;;21.95;14.40;;;;;;;14.16;83.83;100639.60;1727271;83;27515;-58
2021/09/26 10:51:56;;;;;;;9.25;3.12;;;;;;;26.78;42.69;100952.41;1866506;76;27786;-59
2021/09/26 10:54:31;;;;;;;6.50;2.35;;;;;;;26.36;42.66;100947.82;1755903;81;25730;-59
2021/09/26 10:57:19;;;;;;;7.30;2.45;;;;;;;25.95;43.37;100947.73;1775924;80;27547;-60
2021/09/26 10:59:52;;;;;;;7.90;2.27;;;;;;;25.63;43.42;100948.52;1745555;80;25766;-61
2021/09/26 11:02:27;;;;;;;6.22;2.55;;;;;;;25.25;43.96;100953.63;1776224;80;25767;-59
2021/09/26 11:04:59;;;;;;;5.10;2.45;;;;;;;24.96;45.05;100949.43;1775925;80;26216;-58
2021/09/26 11:07:32;;;;;;;5.42;2.52;;;;;;;24.97;45.61;100950.21;1774875;80;25693;-61
2021/09/26 11:10:03;;;;;;;5.75;2.40;;;;;;;24.93;45.55;100946.05;1776586;80;27543;-58
2021/09/26 11:12:45;;;;;;;3.62;2.33;;;;;;;25.05;46.54;100944.90;1777018;80;25392;-60
2021/09/26 11:15:19;;;;;;;5.65;2.10;;;;;;;25.42;46.36;100939.63;1756952;81;25439;-59
2021/09/26 11:17:53;;;;;;;4.62;1.82;;;;;;;26.26;46.66;100942.50;1771018;81;25409;-57
2021/09/26 11:20:31;;;;;;;5.30;2.00;;;;;;;27.15;46.06;100939.88;1753663;81;25632;-57
2021/09/26 11:23:27;;;;;;;4.90;2.37;;;;;;;28.20;44.81;100934.81;1777036;80;27622;-61
2021/09/26 11:26:06;;;;;;;5.37;2.47;;;;;;;28.92;43.51;100935.30;1777069;80;25545;-62
2021/09/26 11:28:39;;;;;;;6.12;1.98;;;;;;;29.58;42.01;100938.83;1747390;80;25644;-62
2021/09/26 11:31:32;;;;;;;4.53;2.30;;;;;;;30.08;41.64;100927.38;1746294;80;25614;-62
2021/09/26 11:34:00;;;;;;;4.50;2.08;;;;;;;30.50;40.17;100925.57;1777025;80;25458;-62
2021/09/26 11:36:29;;;;;;;9.80;2.52;;;;;;;30.08;39.11;100925.20;1776173;80;27569;-57
2021/09/26 11:38:57;;;;;;;6.12;2.20;;;;;;;29.49;39.09;100939.19;1744744;80;25671;-58
2021/09/26 11:41:38;;;;;;;5.03;2.60;;;;;;;29.03;39.54;100934.51;1775762;80;25729;-61
2021/09/26 11:44:08;;;;;;;8.00;2.22;;;;;;;29.03;40.48;100934.51;1775630;80;26254;-60
2021/09/26 11:46:35;;;;;;;4.97;2.20;;;;;;;29.31;40.35;100941.67;1776363;80;25532;-60
2021/09/26 11:49:08;;;;;;;3.83;2.05;;;;;;;29.54;40.67;100935.33;1776089;80;28157;-60
2021/09/26 11:51:36;;;;;;;3.90;2.00;;;;;;;29.56;40.22;100933.52;1776380;80;27203;-60
2021/09/26 11:54:05;;;;;;;;;;;;;;;29.69;40.13;100935.84;1759511;81;25392;-57
2021/09/26 11:56:35;;;;;;;6.80;2.33;;;;;;;29.89;40.03;100928.94;1776460;80;25688;-58
2021/09/26 11:59:15;;;;;;;6.62;2.47;;;;;;;29.97;40.08;100928.98;1730081;82;25587;-60
2021/09/26 12:01:48;;;;;;;4.92;2.40;;;;;;;30.09;38.96;100926.17;1702074;82;28244;-60
2021/09/26 12:04:23;;;;;;;4.80;2.22;;;;;;;30.03;38.83;100925.08;1729500;82;25740;-59
2021/09/26 12:07:02;;;;;;;5.50;2.40;;;;;;;30.01;38.84;100924.73;1728875;82;25772;-59
2021/09/26 12:09:48;;;;;;;5.08;2.05;;;;;;;30.10;39.47;100925.55;1728942;82;25754;-57
2021/09/26 12:12:21;;;;;;;6.47;2.00;;;;;;;29.93;38.86;100925.50;1729469;82;25742;-59
2021/09/26 12:15:04;;;;;;;5.10;2.37;;;;;;;29.30;37.74;100924.77;1728997;81;28178;-57
2021/09/26 12:17:36;;;;;;;6.25;2.08;;;;;;;29.07;38.54;100924.13;1730194;82;25500;-58
2021/09/26 12:20:13;;;;;;;4.33;2.27;;;;;;;29.10;39.23;100920.50;1730513;82;25730;-58
2021/09/26 12:22:40;;;;;;;7.65;2.77;;;;;;;29.33;38.36;100916.95;1735565;80;25623;-59
2021/09/26 12:25:15;;;;;;;4.17;2.00;;;;;;;29.33;37.48;100910.61;1776471;80;25448;-59
2021/09/26 12:27:59;;;;;;;6.95;2.33;;;;;;;29.05;37.48;100908.45;1776234;80;27472;-57
2021/09/26 12:30:34;;;;;;;5.20;2.50;;;;;;;28.96;38.33;100913.74;1774049;80;25453;-58
2021/09/26 12:33:12;;;;;;;4.17;2.05;;;;;;;29.08;39.11;100909.59;1746979;81;25692;-58
2021/09/26 14:51:11;;;;;;;6.62;2.40;;;;;;;24.97;42.58;100892.89;1789653;76;72286;-66
2021/09/26 14:53:39;;;;;;;5.17;2.30;;;;;;;24.82;42.59;100894.65;1746011;81;25417;-69
2021/09/26 14:56:07;;;;;;;5.53;2.40;;;;;;;24.70;42.50;100896.59;1752647;81;25572;-69
2021/09/26 14:58:33;;;;;;;7.15;2.70;;;;;;;24.59;42.64;100901.31;1752248;81;27464;-68
2021/09/26 15:01:00;;;;;;;6.97;2.30;;;;;;;24.43;42.75;100899.66;1749804;81;25639;-67
2021/09/26 15:03:26;;;;;;;6.10;2.65;;;;;;;24.32;43.13;100899.41;1732538;81;25651;-67
2021/09/26 15:05:53;;;;;;;7.15;2.17;;;;;;;24.19;43.63;100900.33;1751492;81;25609;-66
2021/09/26 15:08:19;;;;;;;9.73;2.77;;;;;;;24.04;44.00;100898.89;1752741;81;25641;-65
2021/09/26 15:10:46;;;;;;;7.35;2.30;;;;;;;23.86;44.27;100887.72;1752760;81;27476;-64
2021/09/26 15:13:13;;;;;;;5.97;2.65;;;;;;;23.75;44.94;100891.56;1752004;81;26206;-63
2021/09/26 15:15:40;;;;;;;5.35;2.72;;;;;;;23.66;45.11;100891.91;1720989;81;25743;-64
2021/09/26 15:18:08;;;;;;;4.35;2.20;;;;;;;23.52;45.39;100892.60;1752737;81;25840;-64
2021/09/26 15:20:38;;;;;;;4.80;2.30;;;;;;;23.39;45.71;100889.93;1720969;81;25903;-63
2021/09/26 15:23:07;;;;;;;5.62;2.60;;;;;;;23.25;45.93;100884.50;1752091;81;27886;-62
2021/09/26 15:25:39;;;;;;;6.62;2.60;;;;;;;23.03;46.16;100884.86;1751912;81;25618;-62
2021/09/26 15:28:07;;;;;;;6.12;2.55;;;;;;;22.83;46.51;100889.81;1751690;81;25615;-63
2021/09/26 15:30:34;;;;;;;4.67;2.10;;;;;;;22.62;46.73;100888.98;1751272;81;25722;-64
2021/09/26 15:33:01;;;;;;;5.50;2.65;;;;;;;22.41;47.26;100894.23;1752130;81;25752;-64
2021/09/26 15:35:28;;;;;;;6.25;2.55;;;;;;;22.16;47.55;100896.86;1752295;81;27472;-65
2021/09/26 15:37:55;;;;;;;9.18;2.70;;;;;;;21.93;48.13;100891.45;1749204;81;25694;-63
2021/09/26 15:40:32;;;;;;;7.00;2.90;;;;;;;21.71;48.17;100888.97;1753463;81;25595;-64
2021/09/26 15:42:59;;;;;;;8.10;2.90;;;;;;;21.50;48.57;100886.66;1752952;81;25658;-64
2021/09/26 15:45:31;;;;;;;7.17;3.02;;;;;;;21.28;48.91;100893.73;1753227;81;25393;-63
2021/09/26 15:47:58;;;;;;;4.87;2.35;;;;;;;21.06;49.48;100885.14;1752366;81;27461;-66
2021/09/26 15:50:29;;;;;;;10.88;4.22;;;;;;;20.84;49.61;100887.27;1752480;81;25403;-66
2021/09/26 15:52:58;;;;;;;10.03;3.70;;;;;;;20.65;49.92;100890.84;1767224;80;25833;-66
2021/09/26 15:55:28;;;;;;;9.80;4.22;;;;;;;20.44;50.25;100883.73;1777760;80;27692;-66
2021/09/26 15:57:57;;;;;;;15.13;4.53;;;;;;;20.25;50.36;100887.28;1777727;80;25620;-65
2021/09/26 16:00:28;;;;;;;10.72;4.05;;;;;;;20.06;50.64;100893.55;1777771;80;27847;-66
2021/09/26 16:02:57;;;;;;;10.60;4.67;;;;;;;19.86;51.37;100900.95;1777701;80;25835;-66
2021/09/26 16:05:26;;;;;;;12.05;4.10;;;;;;;19.66;51.70;100895.94;1777821;80;25396;-66
2021/09/26 16:07:54;;;;;;;8.05;3.15;;;;;;;19.47;52.33;100895.88;1751388;80;25487;-66
2021/09/26 16:10:23;;;;;;;11.60;4.60;;;;;;;19.30;52.62;100890.96;1714248;83;25600;-66
2021/09/26 16:12:51;;;;;;;7.80;3.95;;;;;;;19.11;52.94;100895.78;1674852;85;27506;-66
2021/09/26 16:15:22;;;;;;;10.53;4.25;;;;;;;18.92;53.80;100889.61;1735592;82;25660;-66
2021/09/26 16:17:51;;;;;;;7.45;3.42;;;;;;;18.73;53.62;100891.63;1735906;82;25502;-66
2021/09/26 16:20:20;;;;;;;13.62;5.87;;;;;;;18.55;54.01;100888.95;1736152;82;25668;-66
2021/09/26 16:22:48;;;;;;;;;;;;;;;18.39;54.46;100890.25;1684053;84;25677;-66
2021/09/26 16:25:19;;;;;;;15.10;8.13;;;;;;;18.20;55.45;100894.44;1706536;84;27392;-66
2021/09/26 16:27:46;;;;;;;17.23;9.20;;;;;;;17.98;55.07;100894.37;1706544;84;25921;-65
2021/09/26 16:30:14;;;;;;;15.80;8.63;;;;;;;17.83;55.71;100890.36;1706575;84;25603;-67
2021/09/26 16:32:42;;;;;;;16.93;8.50;;;;;;;17.69;56.16;100896.73;1706477;84;26001;-67
2021/09/26 16:35:13;;;;;;;13.72;6.72;;;;;;;17.53;56.79;100896.05;1706657;84;25629;-66
2021/09/26 16:37:40;;;;;;;12.03;5.65;;;;;;;17.38;57.71;100899.46;1709260;83;27461;-66
2021/09/26 16:40:12;;;;;;;24.65;15.05;;;;;;;17.21;57.93;100900.46;1744418;82;25203;-66
2021/09/26 16:42:39;;;;;;;22.00;12.47;;;;;;;17.08;58.39;100902.97;1744330;82;25592;-66
2021/09/26 16:45:08;;;;;;;23.20;15.03;;;;;;;16.93;58.09;100899.72;1744242;82;26309;-67
2021/09/26 16:47:36;;;;;;;21.12;11.75;;;;;;;16.84;58.68;100903.12;1764279;80;25610;-66
2021/09/26 16:50:11;;;;;;;20.43;13.08;;;;;;;16.71;59.36;100894.61;1788514;80;28022;-67
2021/09/26 16:52:40;;;;;;;18.17;9.95;;;;;;;16.55;59.25;100889.77;1777576;80;25717;-66
2021/09/26 16:55:09;;;;;;;14.47;9.20;;;;;;;16.39;60.09;100899.13;1751534;80;25383;-66
2021/09/26 16:57:36;;;;;;;15.00;9.80;;;;;;;16.24;60.47;100897.81;1737592;82;25597;-67
2021/09/26 17:00:08;;;;;;;14.58;9.68;;;;;;;16.13;60.22;100899.91;1737536;82;25437;-67
2021/09/26 17:02:35;;;;;;;17.65;9.70;;;;;;;16.02;60.65;100903.56;1737561;82;27474;-67
2021/09/26 17:05:05;;;;;;;12.25;7.37;;;;;;;15.91;60.81;100898.27;1737472;82;25773;-68
2021/09/26 17:07:32;;;;;;;11.60;5.95;;;;;;;15.80;61.25;100897.84;1661211;84;25672;-67
2021/09/26 17:10:00;;;;;;;13.80;5.95;;;;;;;15.72;61.75;100901.41;1685186;85;26165;-64
2021/09/26 17:12:27;;;;;;;15.08;6.45;;;;;;;15.60;61.96;100896.08;1685209;85;25536;-67
2021/09/26 17:14:56;;;;;;;13.35;6.70;;;;;;;15.53;62.07;100897.70;1685240;85;28716;-66
2021/09/26 17:17:23;;;;;;;11.70;6.17;;;;;;;15.47;62.34;100897.09;1685160;85;25723;-65
2021/09/26 17:19:50;;;;;;;12.18;6.37;;;;;;;15.42;62.41;100901.36;1685266;85;25674;-65
2021/09/26 17:22:16;;;;;;;11.48;5.92;;;;;;;15.35;62.74;100897.78;1685135;83;26445;-65
2021/09/26 17:24:46;;;;;;;13.10;6.03;;;;;;;15.30;63.10;100899.32;1684316;83;25699;-66
2021/09/26 17:27:15;;;;;;;10.03;5.62;;;;;;;15.21;63.66;100902.65;1660893;85;28479;-67
2021/09/26 17:29:43;;;;;;;12.68;5.15;;;;;;;15.09;63.34;100910.13;1741685;81;33422;-67
2021/09/26 17:32:11;;;;;;;11.75;5.60;;;;;;;15.00;63.66;100910.70;1745108;82;25737;-66
2021/09/26 17:34:38;;;;;;;10.75;5.42;;;;;;;14.94;64.28;100919.03;1745139;82;25486;-66
2021/09/26 17:37:05;;;;;;;13.43;6.55;;;;;;;14.86;64.46;100917.12;1745172;82;25709;-66
2021/09/26 17:39:32;;;;;;;13.45;7.22;;;;;;;14.80;64.71;100921.15;1745295;82;27470;-67
2021/09/26 17:41:59;;;;;;;12.18;7.00;;;;;;;14.72;65.35;100921.95;1745184;82;25806;-65
2021/09/26 17:44:26;;;;;;;21.57;9.10;;;;;;;14.62;65.45;100917.63;1745664;82;25697;-68
2021/09/26 17:46:54;;;;;;;14.35;8.03;;;;;;;14.52;65.65;100912.47;1745076;82;25819;-66
2021/09/26 17:49:22;;;;;;;19.05;7.17;;;;;;;14.42;65.92;100908.17;1745825;82;25586;-66
2021/09/26 17:51:49;;;;;;;14.18;6.12;;;;;;;14.32;65.46;100903.84;1766293;79;28179;-66
2021/09/26 17:54:16;;;;;;;13.38;6.30;;;;;;;14.29;65.59;100911.84;1774947;79;25837;-66
2021/09/26 17:56:42;;;;;;;11.35;6.00;;;;;;;14.25;65.70;100907.59;1775090;80;25404;-67
2021/09/26 17:59:09;;;;;;;14.55;7.67;;;;;;;14.25;65.66;100913.58;1774906;80;25547;-65
2021/09/26 18:01:36;;;;;;;16.90;7.50;;;;;;;14.22;66.51;100914.21;1775006;80;25566;-66
2021/09/26 18:04:05;;;;;;;19.40;9.83;;;;;;;14.17;66.39;100908.39;1775011;80;27440;-66
2021/09/26 18:06:32;;;;;;;;;;;;;;;14.12;66.80;100913.98;1754360;80;25613;-67
2021/09/26 18:08:59;;;;;;;17.45;7.75;;;;;;;14.06;67.51;100909.80;1775004;80;25555;-65
2021/09/26 18:11:28;;;;;;;12.18;5.60;;;;;;;13.97;67.08;100909.78;1774853;80;25593;-68
2021/09/26 18:13:55;;;;;;;10.80;5.75;;;;;;;13.90;66.88;100907.52;1775018;80;25431;-66
2021/09/26 18:16:24;;;;;;;14.65;5.90;;;;;;;13.88;66.92;100913.05;1774927;80;27485;-67
2021/09/26 18:18:51;;;;;;;12.63;6.20;;;;;;;13.81;66.79;100908.07;1775002;80;25930;-66
2021/09/26 18:21:22;;;;;;;16.32;6.97;;;;;;;13.76;66.72;100910.37;1774923;80;25358;-66
2021/09/26 18:23:51;;;;;;;11.15;6.80;;;;;;;13.71;66.76;100912.44;1774965;80;26199;-66
2021/09/26 18:26:25;;;;;;;21.82;8.68;;;;;;;13.68;66.91;100914.42;1751659;80;25425;-67
2021/09/26 18:28:54;;;;;;;13.85;6.40;;;;;;;13.63;67.37;100916.72;1775114;80;27070;-66
2021/09/26 18:31:22;;;;;;;9.73;5.67;;;;;;;13.57;67.37;100911.98;1774940;80;25394;-64
2021/09/26 18:33:51;;;;;;;13.55;6.25;;;;;;;13.52;67.53;100916.73;1775067;80;25573;-65
2021/09/26 18:36:22;;;;;;;12.55;5.75;;;;;;;13.45;67.66;100919.37;1775055;80;25590;-65
2021/09/26 18:38:50;;;;;;;11.78;6.30;;;;;;;13.40;67.61;100916.79;1775141;80;25455;-65
2021/09/26 18:41:22;;;;;;;16.05;6.20;;;;;;;13.34;67.85;100916.67;1775067;80;27395;-64
2021/09/26 18:43:50;;;;;;;12.90;6.03;;;;;;;13.33;68.30;100919.70;1775016;80;25604;-63
2021/09/26 18:46:20;;;;;;;17.42;6.50;;;;;;;13.26;68.31;100920.92;1775055;80;25566;-67
2021/09/26 18:48:48;;;;;;;13.15;7.58;;;;;;;13.24;68.44;100919.63;1780915;79;25601;-66
2021/09/26 18:51:19;;;;;;;14.33;6.58;;;;;;;13.22;68.60;100924.00;1763134;81;25405;-67
2021/09/26 18:53:48;;;;;;;17.20;7.67;;;;;;;13.18;68.56;100931.19;1770549;80;27668;-67
2021/09/26 18:56:20;;;;;;;11.83;6.90;;;;;;;13.11;68.80;100922.68;1777694;80;25475;-67
2021/09/26 18:58:55;;;;;;;13.58;7.35;;;;;;;13.10;69.27;100926.50;1777210;80;25817;-67
2021/09/26 19:01:26;;;;;;;15.93;7.67;;;;;;;13.07;69.21;100927.11;1776583;80;26024;-67
2021/09/26 19:03:57;;;;;;;18.65;8.15;;;;;;;13.03;69.38;100924.78;1776647;80;25745;-67
2021/09/26 19:06:22;;;;;;;19.62;8.20;;;;;;;13.00;69.71;100929.47;1776581;79;28219;-66
2021/09/26 19:08:49;;;;;;;15.35;7.20;;;;;;;12.96;69.79;100926.58;1776690;80;25874;-67
2021/09/26 19:11:18;;;;;;;15.98;7.35;;;;;;;12.93;69.65;100927.19;1776867;80;25694;-68
2021/09/26 19:13:48;;;;;;;19.27;8.13;;;;;;;12.91;69.93;100928.63;1777397;79;26144;-67
2021/09/26 19:16:17;;;;;;;18.07;8.95;;;;;;;12.89;69.84;100928.36;1791411;79;25622;-67
2021/09/26 19:18:45;;;;;;;18.48;9.40;;;;;;;12.86;69.89;100931.69;1778339;80;27463;-67
2021/09/26 19:21:13;;;;;;;15.15;9.13;;;;;;;12.85;69.88;100934.71;1778189;80;25730;-67
2021/09/26 19:23:41;;;;;;;58.05;33.78;;;;;;;12.83;69.92;100944.52;1778364;80;25550;-66
2021/09/26 19:26:08;;;;;;;20.68;11.50;;;;;;;12.80;69.99;100939.70;1778191;80;25746;-67
2021/09/26 19:28:40;;;;;;;24.32;11.10;;;;;;;12.78;70.74;100939.21;1778249;80;25152;-66
2021/09/26 19:31:12;;;;;;;29.98;12.47;;;;;;;12.73;70.73;100937.18;1778185;80;27445;-66
2021/09/26 19:33:40;;;;;;;22.62;12.70;;;;;;;12.66;70.66;100942.47;1778045;80;25503;-66
2021/09/26 19:36:08;;;;;;;19.05;11.28;;;;;;;12.63;70.73;100943.11;1778250;79;25641;-66
2021/09/26 19:38:36;;;;;;;20.05;10.90;;;;;;;12.58;70.71;100941.05;1778223;80;25565;-66
2021/09/26 19:41:10;;;;;;;21.62;11.35;;;;;;;12.56;71.09;100939.20;1778309;80;25475;-66
2021/09/26 19:43:42;;;;;;;23.38;11.28;;;;;;;12.52;71.31;100938.45;1778356;80;28240;-66
2021/09/26 19:46:12;;;;;;;27.13;11.93;;;;;;;12.46;71.23;100941.58;1778314;80;25623;-66
2021/09/26 19:48:41;;;;;;;24.47;12.18;;;;;;;12.42;71.45;100941.39;1765223;80;25537;-66
2021/09/26 19:51:09;;;;;;;26.25;12.53;;;;;;;12.39;71.57;100947.42;1778486;80;26310;-66
2021/09/26 19:53:36;;;;;;;37.00;14.87;;;;;;;12.34;71.75;100947.53;1773178;79;25606;-66
2021/09/26 19:56:07;;;;;;;27.48;13.90;;;;;;;12.29;71.93;100952.53;1761380;81;27674;-66
2021/09/26 19:58:41;;;;;;;29.32;12.88;;;;;;;12.24;71.89;100949.94;1761404;81;25690;-66
2021/09/26 20:01:14;;;;;;;30.55;14.47;;;;;;;12.21;72.06;100947.82;1761330;81;25612;-66
2021/09/26 20:03:43;;;;;;;34.00;14.73;;;;;;;12.17;72.20;100952.23;1760700;81;26572;-66
2021/09/26 20:06:10;;;;;;;44.63;16.17;;;;;;;12.12;72.16;100942.84;1764357;80;25774;-67
2021/09/26 20:08:39;;;;;;;41.60;15.58;;;;;;;12.09;72.08;100951.05;1775203;80;27479;-67
2021/09/26 20:11:07;;;;;;;45.17;16.45;;;;;;;12.07;72.32;100952.44;1774848;80;25665;-65
2021/09/26 20:13:35;;;;;;;180.05;89.83;;;;;;;12.04;72.19;100955.78;1774776;80;25494;-67
2021/09/26 20:16:03;;;;;;;74.62;36.53;;;;;;;12.00;72.37;100956.91;1775178;80;25571;-66
2021/09/26 20:18:32;;;;;;;38.98;19.02;;;;;;;11.95;72.63;100951.06;1775059;80;25291;-66
2021/09/26 20:21:03;;;;;;;39.88;18.25;;;;;;;11.92;72.50;100955.73;1775233;80;27515;-67
2021/09/26 20:23:33;;;;;;;25.20;15.65;;;;;;;11.91;72.89;100956.82;1774938;80;25674;-65
2021/09/26 20:26:01;;;;;;;29.18;15.60;;;;;;;11.88;72.67;100960.09;1752128;80;25620;-65
2021/09/26 20:28:28;;;;;;;29.37;15.30;;;;;;;11.84;72.50;100961.81;1707935;83;26233;-66
2021/09/26 20:30:55;;;;;;;26.87;14.13;;;;;;;11.83;72.81;100965.62;1708814;83;25839;-66
2021/09/26 20:33:22;;;;;;;36.83;17.73;;;;;;;11.80;73.15;100967.59;1709557;82;27474;-66
2021/09/26 20:35:49;;;;;;;33.58;16.25;;;;;;;11.76;73.06;100960.62;1710306;83;25592;-65
2021/09/26 20:38:17;;;;;;;29.50;16.00;;;;;;;11.71;73.09;100971.56;1710422;83;26073;-67
2021/09/26 20:40:45;;;;;;;38.53;15.28;;;;;;;11.69;73.10;100973.74;1683432;83;25923;-65
2021/09/26 20:43:15;;;;;;;28.60;15.15;;;;;;;11.66;73.13;100970.83;1710427;83;25675;-66
2021/09/26 20:45:43;;;;;;;;;;;;;;;11.63;73.23;100975.48;1712961;83;27469;-67
2021/09/26 20:48:14;;;;;;;25.45;14.78;;;;;;;11.60;73.76;100978.26;1710297;83;25688;-67
2021/09/26 20:50:46;;;;;;;29.92;14.80;;;;;;;11.54;73.37;100978.91;1710515;83;25709;-66
2021/09/26 20:53:13;;;;;;;29.67;15.93;;;;;;;11.52;73.41;100984.36;1721092;80;26066;-64
2021/09/26 20:55:40;;;;;;;46.13;23.83;;;;;;;11.48;73.71;100988.78;1778505;80;25400;-63
2021/09/26 20:58:07;;;;;;;30.05;16.17;;;;;;;11.47;73.71;100989.87;1778355;80;27558;-64
2021/09/26 21:00:34;;;;;;;26.17;15.03;;;;;;;11.47;73.52;100991.23;1778252;80;25610;-66
2021/09/26 21:03:01;;;;;;;27.58;14.18;;;;;;;11.46;73.73;100996.37;1778361;80;25405;-66
2021/09/26 21:05:30;;;;;;;23.57;14.90;;;;;;;11.44;73.35;100995.34;1778293;80;25478;-64
2021/09/26 21:07:58;;;;;;;;;;;;;;;11.41;73.23;100998.65;1755283;80;25395;-65
2021/09/26 21:10:30;;;;;;;25.55;15.10;;;;;;;11.38;73.50;101007.36;1778401;80;27445;-66
2021/09/26 21:12:58;;;;;;;28.07;15.30;;;;;;;11.33;73.36;101004.73;1778192;80;25209;-65
2021/09/26 21:15:31;;;;;;;26.68;14.68;;;;;;;11.30;73.59;101014.24;1780782;79;25542;-65
2021/09/26 21:17:59;;;;;;;28.65;15.55;;;;;;;11.26;73.78;101012.44;1753408;80;25769;-65
2021/09/26 21:20:30;;;;;;;26.35;15.05;;;;;;;11.21;73.98;101001.93;1797476;78;25557;-65
2021/09/26 21:22:58;;;;;;;28.27;15.60;;;;;;;11.18;73.74;101005.78;1810732;79;27536;-65
2021/09/26 21:25:27;;;;;;;26.27;14.83;;;;;;;11.15;73.76;101005.84;1780546;79;25388;-66
2021/09/26 21:27:55;;;;;;;25.02;16.02;;;;;;;11.11;73.70;101002.09;1808410;79;25389;-65
2021/09/26 21:30:26;;;;;;;33.83;15.50;;;;;;;11.09;74.19;101007.01;1811307;79;25498;-66
2021/09/26 21:32:53;;;;;;;23.02;14.20;;;;;;;11.05;73.99;101005.17;1791486;78;25605;-66
2021/09/26 21:35:23;;;;;;;35.30;14.55;;;;;;;11.01;73.91;101008.47;1788661;78;27992;-65
2021/09/26 21:37:51;;;;;;;25.32;14.40;;;;;;;10.98;73.98;101007.72;1810157;79;25670;-65
2021/09/26 21:40:23;;;;;;;32.25;15.70;;;;;;;10.94;74.03;101005.89;1811371;79;25508;-65
2021/09/26 21:42:50;;;;;;;26.50;14.95;;;;;;;10.90;74.18;101004.88;1813221;79;26251;-64
2021/09/26 21:45:16;;;;;;;27.85;16.42;;;;;;;10.83;74.39;101004.69;1811449;79;25546;-64
2021/09/26 21:47:43;;;;;;;35.25;16.20;;;;;;;10.80;74.31;101013.39;1811391;79;27495;-64
2021/09/26 21:50:15;;;;;;;29.25;15.30;;;;;;;10.77;74.04;101017.23;1811310;79;25356;-65
2021/09/26 21:52:46;;;;;;;29.40;15.98;;;;;;;10.74;74.15;101017.80;1810879;79;25271;-64
2021/09/26 21:55:16;;;;;;;29.23;15.90;;;;;;;10.71;74.65;101018.39;1794257;77;25536;-65
2021/09/26 21:57:42;;;;;;;26.25;15.32;;;;;;;10.66;74.43;101012.52;1788548;80;25562;-65
2021/09/26 22:00:39;;;;;;;25.60;14.68;;;;;;;10.62;74.62;101016.36;1788529;80;27466;-66
2021/09/26 22:03:09;;;;;;;26.55;14.70;;;;;;;10.59;74.44;101012.05;1788559;80;25546;-66
2021/09/26 22:05:36;;;;;;;23.73;14.53;;;;;;;10.57;74.79;101012.89;1788537;80;25431;-66
2021/09/26 22:08:03;;;;;;;28.50;14.55;;;;;;;10.52;74.82;101010.26;1788418;80;27654;-66
2021/09/26 22:10:33;;;;;;;28.75;13.95;;;;;;;10.49;74.97;101010.84;1788502;80;25368;-65
2021/09/26 22:13:03;;;;;;;26.48;14.28;;;;;;;10.42;74.89;101012.54;1788462;79;28020;-65
2021/09/26 22:15:33;;;;;;;24.60;14.03;;;;;;;10.35;74.87;101012.92;1788403;80;25575;-66
2021/09/26 22:18:00;;;;;;;28.85;14.23;;;;;;;10.32;74.98;101005.38;1788533;79;25472;-65
2021/09/26 22:20:31;;;;;;;28.50;14.30;;;;;;;10.27;75.15;101008.91;1788492;79;25609;-65
2021/09/26 22:22:58;;;;;;;33.85;15.53;;;;;;;10.23;75.28;101009.77;1788560;79;25554;-65
2021/09/26 22:25:32;;;;;;;37.35;17.05;;;;;;;10.18;75.35;101008.48;1788508;80;27487;-65
2021/09/26 22:27:59;;;;;;;39.63;18.80;;;;;;;10.18;75.71;101015.24;1788420;80;25435;-66
2021/09/26 22:30:28;;;;;;;37.98;16.70;;;;;;;10.15;75.82;101019.34;1788548;80;25535;-65
2021/09/26 22:32:56;;;;;;;31.07;15.65;;;;;;;10.15;75.99;101019.34;1788608;79;25643;-66
2021/09/26 22:35:28;;;;;;;26.87;14.68;;;;;;;10.13;75.44;101026.11;1788630;80;25637;-65
2021/09/26 22:37:54;;;;;;;21.48;12.68;;;;;;;10.10;75.56;101028.30;1788573;80;27553;-65
2021/09/26 22:40:24;;;;;;;24.77;13.43;;;;;;;10.08;75.25;101026.44;1788521;80;26162;-66
2021/09/26 22:42:55;;;;;;;23.25;12.20;;;;;;;10.05;75.55;101027.02;1788603;79;25462;-64
2021/09/26 22:45:25;;;;;;;31.02;12.73;;;;;;;10.02;75.73;101032.19;1788582;79;26523;-65
2021/09/26 22:47:52;;;;;;;29.70;13.93;;;;;;;10.01;75.89;101029.22;1771546;80;25718;-65
2021/09/26 22:50:23;;;;;;;27.05;13.13;;;;;;;9.96;75.85;101026.56;1771884;80;27481;-65
2021/09/26 22:52:51;;;;;;;26.10;14.23;;;;;;;9.94;75.97;101029.55;1768129;80;25638;-64
2021/09/26 22:55:29;;;;;;;27.90;13.83;;;;;;;9.93;76.08;101021.73;1762091;80;25629;-64
2021/09/26 22:57:56;;;;;;;23.80;13.28;;;;;;;9.89;76.00;101025.55;1755517;81;26366;-64
2021/09/26 23:00:32;;;;;;;27.42;12.75;;;;;;;9.87;76.36;101031.80;1757285;81;25631;-66
2021/09/26 23:03:05;;;;;;;22.82;12.68;;;;;;;9.84;76.17;101031.01;1660820;86;27526;-65
2021/09/26 23:05:32;;;;;;;22.32;12.45;;;;;;;9.82;76.30;101027.80;1660791;86;25342;-65
2021/09/26 23:07:58;;;;;;;22.50;12.53;;;;;;;9.80;76.39;101031.34;1684517;85;25671;-67
2021/09/26 23:10:26;;;;;;;21.62;11.75;;;;;;;9.77;76.38;101026.49;1660846;85;25757;-66
2021/09/26 23:12:54;;;;;;;18.98;11.20;;;;;;;9.74;76.62;101021.13;1684437;85;25489;-66
2021/09/26 23:15:26;;;;;;;20.65;11.48;;;;;;;9.71;76.46;101018.44;1660038;86;28059;-66
2021/09/26 23:17:53;;;;;;;26.10;12.05;;;;;;;9.70;76.50;101020.91;1657943;86;25442;-66
2021/09/26 23:20:23;;;;;;;28.45;13.13;;;;;;;9.70;76.33;101022.78;1673837;85;26156;-67
2021/09/26 23:22:51;;;;;;;25.30;11.20;;;;;;;9.66;76.21;101028.50;1632986;86;25572;-66
2021/09/26 23:25:22;;;;;;;24.80;14.85;;;;;;;9.63;76.37;101027.71;1660561;86;25653;-66
2021/09/26 23:27:49;;;;;;;25.05;14.15;;;;;;;9.58;76.41;101024.50;1743567;80;27281;-65
2021/09/26 23:30:17;;;;;;;21.97;12.47;;;;;;;9.56;76.49;101029.95;1787322;80;25751;-65
2021/09/26 23:32:45;;;;;;;22.20;12.00;;;;;;;9.52;76.62;101021.05;1772686;81;25460;-65
2021/09/26 23:35:15;;;;;;;23.80;13.20;;;;;;;9.49;76.96;101022.97;1773782;80;25527;-65
2021/09/26 23:37:45;;;;;;;25.52;13.10;;;;;;;9.46;76.67;101020.03;1740526;82;25480;-65